sensor_id;sensor_type;location;lat;lon;timestamp;P1;durP1;ratioP1;P2;durP2;ratioP2
51714;SDS011;39115;59.332;18.034;2023-02-23T00:00:50;5.97;;;2.47;;
51714;SDS011;39115;59.332;18.034;2023-02-23T00:03:11;6.85;;;2.72;;
51714;SDS011;39115;59.332;18.034;2023-02-23T00:05:34;4.57;;;1.95;;
51714;SDS011;39115;59.332;18.034;2023-02-23T00:07:56;4.88;;;2.50;;
51714;SDS011;39115;59.332;18.034;2023-02-23T00:10:16;5.22;;;2.63;;
51714;SDS011;39115;59.332;18.034;2023-02-23T00:12:40;4.13;;;2.15;;
51714;SDS011;39115;59.332;18.034;2023-02-23T00:15:01;7.47;;;2.50;;
51714;SDS011;39115;59.332;18.034;2023-02-23T00:17:21;5.07;;;2.63;;
51714;SDS011;39115;59.332;18.034;2023-02-23T00:19:45;4.53;;;2.78;;
51714;SDS011;39115;59.332;18.034;2023-02-23T00:22:06;4.95;;;2.55;;
51714;SDS011;39115;59.332;18.034;2023-02-23T00:24:27;3.97;;;2.35;;
51714;SDS011;39115;59.332;18.034;2023-02-23T00:26:48;3.78;;;2.15;;
51714;SDS011;39115;59.332;18.034;2023-02-23T00:29:12;3.50;;;2.30;;
51714;SDS011;39115;59.332;18.034;2023-02-23T00:31:36;3.97;;;2.10;;
51714;SDS011;39115;59.332;18.034;2023-02-23T00:33:58;3.08;;;1.85;;
51714;SDS011;39115;59.332;18.034;2023-02-23T00:36:21;3.20;;;1.55;;
51714;SDS011;39115;59.332;18.034;2023-02-23T00:38:44;3.38;;;1.88;;
51714;SDS011;39115;59.332;18.034;2023-02-23T00:41:06;2.63;;;1.83;;
51714;SDS011;39115;59.332;18.034;2023-02-23T00:43:27;6.45;;;2.00;;
51714;SDS011;39115;59.332;18.034;2023-02-23T00:45:48;5.20;;;1.95;;
51714;SDS011;39115;59.332;18.034;2023-02-23T00:48:08;4.65;;;2.20;;
51714;SDS011;39115;59.332;18.034;2023-02-23T00:50:29;2.85;;;1.30;;
51714;SDS011;39115;59.332;18.034;2023-02-23T00:52:50;4.65;;;1.52;;
51714;SDS011;39115;59.332;18.034;2023-02-23T00:55:11;4.05;;;1.83;;
51714;SDS011;39115;59.332;18.034;2023-02-23T00:57:34;3.80;;;1.17;;
51714;SDS011;39115;59.332;18.034;2023-02-23T00:59:54;2.90;;;1.25;;
51714;SDS011;39115;59.332;18.034;2023-02-23T01:02:15;4.25;;;1.40;;
51714;SDS011;39115;59.332;18.034;2023-02-23T01:04:35;2.15;;;1.10;;
51714;SDS011;39115;59.332;18.034;2023-02-23T01:06:56;2.78;;;1.13;;
51714;SDS011;39115;59.332;18.034;2023-02-23T01:09:16;3.90;;;1.38;;
51714;SDS011;39115;59.332;18.034;2023-02-23T01:11:47;2.20;;;1.13;;
51714;SDS011;39115;59.332;18.034;2023-02-23T01:14:08;2.83;;;1.30;;
51714;SDS011;39115;59.332;18.034;2023-02-23T01:16:30;2.03;;;1.00;;
51714;SDS011;39115;59.332;18.034;2023-02-23T01:18:52;1.67;;;1.10;;
51714;SDS011;39115;59.332;18.034;2023-02-23T01:23:36;2.58;;;1.10;;
51714;SDS011;39115;59.332;18.034;2023-02-23T01:25:57;2.35;;;0.60;;
51714;SDS011;39115;59.332;18.034;2023-02-23T01:28:18;2.15;;;1.13;;
51714;SDS011;39115;59.332;18.034;2023-02-23T01:30:38;3.00;;;0.90;;
51714;SDS011;39115;59.332;18.034;2023-02-23T01:32:59;2.45;;;1.17;;
51714;SDS011;39115;59.332;18.034;2023-02-23T01:35:21;1.80;;;0.80;;
51714;SDS011;39115;59.332;18.034;2023-02-23T01:37:42;1.80;;;0.95;;
51714;SDS011;39115;59.332;18.034;2023-02-23T01:40:03;3.03;;;1.20;;
51714;SDS011;39115;59.332;18.034;2023-02-23T01:42:35;2.90;;;1.05;;
51714;SDS011;39115;59.332;18.034;2023-02-23T01:45:11;3.00;;;1.08;;
51714;SDS011;39115;59.332;18.034;2023-02-23T01:47:47;1.33;;;0.70;;
51714;SDS011;39115;59.332;18.034;2023-02-23T01:50:09;1.30;;;0.80;;
51714;SDS011;39115;59.332;18.034;2023-02-23T01:52:31;4.30;;;1.00;;
51714;SDS011;39115;59.332;18.034;2023-02-23T01:54:52;1.85;;;0.80;;
51714;SDS011;39115;59.332;18.034;2023-02-23T01:57:14;2.92;;;1.00;;
51714;SDS011;39115;59.332;18.034;2023-02-23T01:59:38;2.47;;;1.17;;
51714;SDS011;39115;59.332;18.034;2023-02-23T02:02:01;2.55;;;1.20;;
51714;SDS011;39115;59.332;18.034;2023-02-23T02:04:24;1.95;;;0.93;;
51714;SDS011;39115;59.332;18.034;2023-02-23T02:06:45;3.67;;;0.95;;
51714;SDS011;39115;59.332;18.034;2023-02-23T02:09:14;1.75;;;0.85;;
51714;SDS011;39115;59.332;18.034;2023-02-23T02:11:36;2.13;;;0.75;;
51714;SDS011;39115;59.332;18.034;2023-02-23T02:14:43;2.40;;;0.90;;
51714;SDS011;39115;59.332;18.034;2023-02-23T02:22:18;2.15;;;1.05;;
51714;SDS011;39115;59.332;18.034;2023-02-23T02:24:50;2.03;;;1.00;;
51714;SDS011;39115;59.332;18.034;2023-02-23T02:39:01;2.10;;;1.35;;
51714;SDS011;39115;59.332;18.034;2023-02-23T02:41:15;1.60;;;1.00;;
51714;SDS011;39115;59.332;18.034;2023-02-23T02:48:58;3.00;;;1.20;;
51714;SDS011;39115;59.332;18.034;2023-02-23T02:54:10;1.88;;;0.98;;
51714;SDS011;39115;59.332;18.034;2023-02-23T02:56:53;1.90;;;0.98;;
51714;SDS011;39115;59.332;18.034;2023-02-23T02:59:19;2.55;;;1.27;;
51714;SDS011;39115;59.332;18.034;2023-02-23T03:01:58;2.25;;;1.15;;
51714;SDS011;39115;59.332;18.034;2023-02-23T03:04:38;2.40;;;1.20;;
51714;SDS011;39115;59.332;18.034;2023-02-23T03:07:22;3.55;;;0.80;;
51714;SDS011;39115;59.332;18.034;2023-02-23T03:10:18;2.95;;;1.27;;
51714;SDS011;39115;59.332;18.034;2023-02-23T03:19:25;1.50;;;0.80;;
51714;SDS011;39115;59.332;18.034;2023-02-23T03:30:24;2.45;;;1.25;;
51714;SDS011;39115;59.332;18.034;2023-02-23T03:33:10;1.45;;;1.23;;
51714;SDS011;39115;59.332;18.034;2023-02-23T03:35:57;2.47;;;1.00;;
51714;SDS011;39115;59.332;18.034;2023-02-23T03:42:01;2.35;;;0.82;;
51714;SDS011;39115;59.332;18.034;2023-02-23T03:44:45;3.38;;;1.08;;
51714;SDS011;39115;59.332;18.034;2023-02-23T03:47:27;1.95;;;1.25;;
51714;SDS011;39115;59.332;18.034;2023-02-23T03:50:12;2.05;;;1.05;;
51714;SDS011;39115;59.332;18.034;2023-02-23T03:52:58;1.75;;;0.80;;
51714;SDS011;39115;59.332;18.034;2023-02-23T03:55:41;1.98;;;1.02;;
51714;SDS011;39115;59.332;18.034;2023-02-23T03:58:39;3.15;;;0.90;;
51714;SDS011;39115;59.332;18.034;2023-02-23T04:01:25;2.28;;;1.13;;
51714;SDS011;39115;59.332;18.034;2023-02-23T04:04:05;3.05;;;1.13;;
51714;SDS011;39115;59.332;18.034;2023-02-23T04:06:47;1.85;;;1.00;;
51714;SDS011;39115;59.332;18.034;2023-02-23T04:09:27;4.22;;;1.10;;
51714;SDS011;39115;59.332;18.034;2023-02-23T04:15:11;3.22;;;0.75;;
51714;SDS011;39115;59.332;18.034;2023-02-23T04:17:42;2.45;;;0.88;;
51714;SDS011;39115;59.332;18.034;2023-02-23T04:20:03;3.90;;;1.00;;
51714;SDS011;39115;59.332;18.034;2023-02-23T04:22:26;2.08;;;1.02;;
51714;SDS011;39115;59.332;18.034;2023-02-23T04:24:47;2.55;;;0.82;;
51714;SDS011;39115;59.332;18.034;2023-02-23T04:27:07;4.25;;;1.05;;
51714;SDS011;39115;59.332;18.034;2023-02-23T04:29:28;5.40;;;0.98;;
51714;SDS011;39115;59.332;18.034;2023-02-23T04:31:48;1.70;;;0.90;;
51714;SDS011;39115;59.332;18.034;2023-02-23T04:34:09;3.03;;;1.08;;
51714;SDS011;39115;59.332;18.034;2023-02-23T04:36:29;3.08;;;1.42;;
51714;SDS011;39115;59.332;18.034;2023-02-23T04:38:50;1.75;;;1.05;;
51714;SDS011;39115;59.332;18.034;2023-02-23T04:41:10;1.85;;;0.90;;
51714;SDS011;39115;59.332;18.034;2023-02-23T04:43:31;2.15;;;1.00;;
51714;SDS011;39115;59.332;18.034;2023-02-23T04:45:52;1.88;;;0.68;;
51714;SDS011;39115;59.332;18.034;2023-02-23T04:48:12;1.80;;;1.00;;
51714;SDS011;39115;59.332;18.034;2023-02-23T04:50:33;2.20;;;1.00;;
51714;SDS011;39115;59.332;18.034;2023-02-23T04:52:53;1.70;;;1.02;;
51714;SDS011;39115;59.332;18.034;2023-02-23T04:55:18;2.22;;;1.00;;
51714;SDS011;39115;59.332;18.034;2023-02-23T04:57:40;2.28;;;0.90;;
51714;SDS011;39115;59.332;18.034;2023-02-23T05:00:01;1.67;;;1.20;;
51714;SDS011;39115;59.332;18.034;2023-02-23T05:02:24;1.58;;;1.15;;
51714;SDS011;39115;59.332;18.034;2023-02-23T05:04:44;2.67;;;1.33;;
51714;SDS011;39115;59.332;18.034;2023-02-23T05:07:05;1.83;;;0.93;;
51714;SDS011;39115;59.332;18.034;2023-02-23T05:09:26;2.47;;;0.93;;
51714;SDS011;39115;59.332;18.034;2023-02-23T05:11:46;3.03;;;1.23;;
51714;SDS011;39115;59.332;18.034;2023-02-23T05:14:07;4.22;;;0.93;;
51714;SDS011;39115;59.332;18.034;2023-02-23T05:16:28;2.50;;;1.20;;
51714;SDS011;39115;59.332;18.034;2023-02-23T05:18:49;3.10;;;1.00;;
51714;SDS011;39115;59.332;18.034;2023-02-23T05:21:09;2.35;;;1.75;;
51714;SDS011;39115;59.332;18.034;2023-02-23T05:23:30;3.72;;;1.10;;
51714;SDS011;39115;59.332;18.034;2023-02-23T05:25:51;3.05;;;1.42;;
51714;SDS011;39115;59.332;18.034;2023-02-23T05:28:12;2.90;;;1.08;;
51714;SDS011;39115;59.332;18.034;2023-02-23T05:30:32;2.47;;;1.10;;
51714;SDS011;39115;59.332;18.034;2023-02-23T05:32:53;3.03;;;1.10;;
51714;SDS011;39115;59.332;18.034;2023-02-23T05:35:13;2.20;;;1.20;;
51714;SDS011;39115;59.332;18.034;2023-02-23T05:37:34;3.08;;;1.23;;
51714;SDS011;39115;59.332;18.034;2023-02-23T05:39:54;4.25;;;1.90;;
51714;SDS011;39115;59.332;18.034;2023-02-23T05:42:15;2.78;;;1.25;;
51714;SDS011;39115;59.332;18.034;2023-02-23T05:44:36;3.00;;;1.20;;
51714;SDS011;39115;59.332;18.034;2023-02-23T05:46:56;1.98;;;0.93;;
51714;SDS011;39115;59.332;18.034;2023-02-23T05:49:17;3.95;;;1.30;;
51714;SDS011;39115;59.332;18.034;2023-02-23T05:51:38;3.60;;;1.08;;
51714;SDS011;39115;59.332;18.034;2023-02-23T05:53:58;3.63;;;1.50;;
51714;SDS011;39115;59.332;18.034;2023-02-23T05:56:20;2.88;;;1.50;;
51714;SDS011;39115;59.332;18.034;2023-02-23T05:58:41;3.13;;;1.42;;
51714;SDS011;39115;59.332;18.034;2023-02-23T06:01:01;2.70;;;1.17;;
51714;SDS011;39115;59.332;18.034;2023-02-23T06:03:23;4.68;;;1.33;;
51714;SDS011;39115;59.332;18.034;2023-02-23T06:05:54;2.47;;;1.15;;
51714;SDS011;39115;59.332;18.034;2023-02-23T06:08:16;2.92;;;1.23;;
51714;SDS011;39115;59.332;18.034;2023-02-23T06:10:36;2.63;;;1.05;;
51714;SDS011;39115;59.332;18.034;2023-02-23T06:12:57;3.72;;;1.40;;
51714;SDS011;39115;59.332;18.034;2023-02-23T06:15:17;2.15;;;1.33;;
51714;SDS011;39115;59.332;18.034;2023-02-23T06:17:38;3.85;;;1.23;;
51714;SDS011;39115;59.332;18.034;2023-02-23T06:19:58;3.42;;;1.33;;
51714;SDS011;39115;59.332;18.034;2023-02-23T06:22:21;2.97;;;1.42;;
51714;SDS011;39115;59.332;18.034;2023-02-23T06:24:42;3.45;;;1.85;;
51714;SDS011;39115;59.332;18.034;2023-02-23T06:27:03;3.92;;;1.40;;
51714;SDS011;39115;59.332;18.034;2023-02-23T06:29:24;2.75;;;1.58;;
51714;SDS011;39115;59.332;18.034;2023-02-23T06:31:44;3.35;;;1.80;;
51714;SDS011;39115;59.332;18.034;2023-02-23T06:34:05;4.38;;;1.63;;
51714;SDS011;39115;59.332;18.034;2023-02-23T06:36:26;4.85;;;1.50;;
51714;SDS011;39115;59.332;18.034;2023-02-23T06:38:46;2.38;;;1.20;;
51714;SDS011;39115;59.332;18.034;2023-02-23T06:41:08;2.28;;;1.00;;
51714;SDS011;39115;59.332;18.034;2023-02-23T06:43:29;4.30;;;1.17;;
51714;SDS011;39115;59.332;18.034;2023-02-23T06:45:50;4.80;;;1.10;;
51714;SDS011;39115;59.332;18.034;2023-02-23T06:48:10;3.08;;;1.42;;
51714;SDS011;39115;59.332;18.034;2023-02-23T06:50:31;2.40;;;1.17;;
51714;SDS011;39115;59.332;18.034;2023-02-23T06:52:51;4.30;;;1.15;;
51714;SDS011;39115;59.332;18.034;2023-02-23T06:55:12;3.13;;;1.67;;
51714;SDS011;39115;59.332;18.034;2023-02-23T06:57:33;3.17;;;1.40;;
51714;SDS011;39115;59.332;18.034;2023-02-23T06:59:53;1.75;;;0.90;;
51714;SDS011;39115;59.332;18.034;2023-02-23T07:02:14;2.22;;;1.23;;
51714;SDS011;39115;59.332;18.034;2023-02-23T07:04:35;2.70;;;1.73;;
51714;SDS011;39115;59.332;18.034;2023-02-23T07:06:56;2.72;;;1.20;;
51714;SDS011;39115;59.332;18.034;2023-02-23T07:09:16;2.30;;;1.40;;
51714;SDS011;39115;59.332;18.034;2023-02-23T07:11:38;2.15;;;1.15;;
51714;SDS011;39115;59.332;18.034;2023-02-23T07:14:00;2.75;;;1.60;;
51714;SDS011;39115;59.332;18.034;2023-02-23T07:16:21;3.42;;;1.10;;
51714;SDS011;39115;59.332;18.034;2023-02-23T07:18:42;2.70;;;1.48;;
51714;SDS011;39115;59.332;18.034;2023-02-23T07:21:03;3.28;;;1.55;;
51714;SDS011;39115;59.332;18.034;2023-02-23T07:23:24;1.70;;;1.02;;
51714;SDS011;39115;59.332;18.034;2023-02-23T07:25:45;3.00;;;1.40;;
51714;SDS011;39115;59.332;18.034;2023-02-23T07:28:05;3.78;;;1.40;;
51714;SDS011;39115;59.332;18.034;2023-02-23T07:30:25;3.65;;;1.42;;
51714;SDS011;39115;59.332;18.034;2023-02-23T07:32:46;2.78;;;1.05;;
51714;SDS011;39115;59.332;18.034;2023-02-23T07:35:07;3.05;;;1.08;;
51714;SDS011;39115;59.332;18.034;2023-02-23T07:37:28;1.88;;;0.88;;
51714;SDS011;39115;59.332;18.034;2023-02-23T07:39:48;3.45;;;1.05;;
51714;SDS011;39115;59.332;18.034;2023-02-23T07:42:09;2.25;;;1.25;;
51714;SDS011;39115;59.332;18.034;2023-02-23T07:44:29;2.10;;;1.08;;
51714;SDS011;39115;59.332;18.034;2023-02-23T07:46:50;3.05;;;1.00;;
51714;SDS011;39115;59.332;18.034;2023-02-23T07:49:11;3.08;;;1.35;;
51714;SDS011;39115;59.332;18.034;2023-02-23T07:51:32;2.33;;;0.80;;
51714;SDS011;39115;59.332;18.034;2023-02-23T07:53:53;2.08;;;0.98;;
51714;SDS011;39115;59.332;18.034;2023-02-23T07:56:14;2.25;;;0.90;;
51714;SDS011;39115;59.332;18.034;2023-02-23T07:58:34;2.90;;;1.27;;
51714;SDS011;39115;59.332;18.034;2023-02-23T08:00:57;1.33;;;0.85;;
51714;SDS011;39115;59.332;18.034;2023-02-23T08:03:18;6.40;;;1.15;;
51714;SDS011;39115;59.332;18.034;2023-02-23T08:05:38;2.08;;;1.15;;
51714;SDS011;39115;59.332;18.034;2023-02-23T08:07:59;1.40;;;0.73;;
51714;SDS011;39115;59.332;18.034;2023-02-23T08:10:20;1.67;;;0.70;;
51714;SDS011;39115;59.332;18.034;2023-02-23T08:12:40;1.77;;;0.80;;
51714;SDS011;39115;59.332;18.034;2023-02-23T08:15:01;1.40;;;0.63;;
51714;SDS011;39115;59.332;18.034;2023-02-23T08:17:24;1.45;;;0.80;;
51714;SDS011;39115;59.332;18.034;2023-02-23T08:19:45;3.80;;;1.27;;
51714;SDS011;39115;59.332;18.034;2023-02-23T08:22:05;1.50;;;0.70;;
51714;SDS011;39115;59.332;18.034;2023-02-23T08:24:26;2.42;;;0.80;;
51714;SDS011;39115;59.332;18.034;2023-02-23T08:26:48;2.63;;;0.63;;
51714;SDS011;39115;59.332;18.034;2023-02-23T08:29:09;2.33;;;0.75;;
51714;SDS011;39115;59.332;18.034;2023-02-23T08:31:30;2.42;;;0.70;;
51714;SDS011;39115;59.332;18.034;2023-02-23T08:33:51;1.17;;;0.75;;
51714;SDS011;39115;59.332;18.034;2023-02-23T08:36:11;1.52;;;0.60;;
51714;SDS011;39115;59.332;18.034;2023-02-23T08:38:32;3.35;;;0.63;;
51714;SDS011;39115;59.332;18.034;2023-02-23T08:40:58;1.17;;;0.50;;
51714;SDS011;39115;59.332;18.034;2023-02-23T08:43:19;0.75;;;0.45;;
51714;SDS011;39115;59.332;18.034;2023-02-23T08:45:39;4.32;;;0.52;;
51714;SDS011;39115;59.332;18.034;2023-02-23T08:48:00;2.25;;;0.80;;
51714;SDS011;39115;59.332;18.034;2023-02-23T08:50:21;0.90;;;0.65;;
51714;SDS011;39115;59.332;18.034;2023-02-23T08:52:41;1.38;;;0.70;;
51714;SDS011;39115;59.332;18.034;2023-02-23T08:55:02;1.48;;;0.50;;
51714;SDS011;39115;59.332;18.034;2023-02-23T08:57:23;1.08;;;0.70;;
51714;SDS011;39115;59.332;18.034;2023-02-23T08:59:45;1.48;;;0.75;;
51714;SDS011;39115;59.332;18.034;2023-02-23T09:02:08;1.10;;;0.80;;
51714;SDS011;39115;59.332;18.034;2023-02-23T09:06:54;1.70;;;0.80;;
51714;SDS011;39115;59.332;18.034;2023-02-23T09:09:15;1.13;;;0.73;;
51714;SDS011;39115;59.332;18.034;2023-02-23T09:11:36;1.05;;;0.65;;
51714;SDS011;39115;59.332;18.034;2023-02-23T09:13:57;2.30;;;0.95;;
51714;SDS011;39115;59.332;18.034;2023-02-23T09:16:17;1.08;;;0.60;;
51714;SDS011;39115;59.332;18.034;2023-02-23T09:18:38;2.08;;;1.10;;
51714;SDS011;39115;59.332;18.034;2023-02-23T09:21:01;1.70;;;1.10;;
51714;SDS011;39115;59.332;18.034;2023-02-23T09:23:29;1.77;;;0.85;;
51714;SDS011;39115;59.332;18.034;2023-02-23T09:25:50;3.38;;;1.70;;
51714;SDS011;39115;59.332;18.034;2023-02-23T09:28:14;2.13;;;1.10;;
51714;SDS011;39115;59.332;18.034;2023-02-23T09:30:35;1.33;;;0.80;;
51714;SDS011;39115;59.332;18.034;2023-02-23T09:32:56;1.77;;;1.00;;
51714;SDS011;39115;59.332;18.034;2023-02-23T09:35:17;1.40;;;0.93;;
51714;SDS011;39115;59.332;18.034;2023-02-23T09:37:39;2.17;;;1.20;;
51714;SDS011;39115;59.332;18.034;2023-02-23T09:40:00;1.55;;;1.02;;
51714;SDS011;39115;59.332;18.034;2023-02-23T09:42:39;2.95;;;1.63;;
51714;SDS011;39115;59.332;18.034;2023-02-23T09:47:50;2.97;;;0.98;;
51714;SDS011;39115;59.332;18.034;2023-02-23T09:50:21;5.83;;;1.10;;
51714;SDS011;39115;59.332;18.034;2023-02-23T09:52:46;2.45;;;1.50;;
51714;SDS011;39115;59.332;18.034;2023-02-23T09:55:13;2.35;;;1.20;;
51714;SDS011;39115;59.332;18.034;2023-02-23T09:57:36;3.20;;;1.23;;
51714;SDS011;39115;59.332;18.034;2023-02-23T09:59:59;1.20;;;0.70;;
51714;SDS011;39115;59.332;18.034;2023-02-23T10:02:25;2.47;;;1.30;;
51714;SDS011;39115;59.332;18.034;2023-02-23T10:04:57;4.07;;;1.20;;
51714;SDS011;39115;59.332;18.034;2023-02-23T10:07:25;2.60;;;1.13;;
51714;SDS011;39115;59.332;18.034;2023-02-23T10:17:52;3.55;;;1.23;;
51714;SDS011;39115;59.332;18.034;2023-02-23T10:23:02;2.92;;;1.00;;
51714;SDS011;39115;59.332;18.034;2023-02-23T10:25:29;1.83;;;0.90;;
51714;SDS011;39115;59.332;18.034;2023-02-23T10:27:53;3.88;;;1.20;;
51714;SDS011;39115;59.332;18.034;2023-02-23T10:35:13;3.47;;;1.00;;
51714;SDS011;39115;59.332;18.034;2023-02-23T10:37:36;3.47;;;0.90;;
51714;SDS011;39115;59.332;18.034;2023-02-23T10:39:57;2.25;;;1.50;;
51714;SDS011;39115;59.332;18.034;2023-02-23T10:42:19;1.33;;;0.88;;
51714;SDS011;39115;59.332;18.034;2023-02-23T10:44:43;3.13;;;1.30;;
51714;SDS011;39115;59.332;18.034;2023-02-23T10:47:10;1.48;;;1.10;;
51714;SDS011;39115;59.332;18.034;2023-02-23T10:49:44;3.30;;;0.80;;
51714;SDS011;39115;59.332;18.034;2023-02-23T10:52:28;1.55;;;0.98;;
51714;SDS011;39115;59.332;18.034;2023-02-23T10:54:48;1.95;;;1.33;;
51714;SDS011;39115;59.332;18.034;2023-02-23T10:57:11;1.65;;;1.00;;
51714;SDS011;39115;59.332;18.034;2023-02-23T10:59:40;4.82;;;1.73;;
51714;SDS011;39115;59.332;18.034;2023-02-23T11:02:22;5.88;;;1.58;;
51714;SDS011;39115;59.332;18.034;2023-02-23T11:04:49;1.83;;;1.02;;
51714;SDS011;39115;59.332;18.034;2023-02-23T11:07:17;2.42;;;1.38;;
51714;SDS011;39115;59.332;18.034;2023-02-23T11:09:41;3.00;;;1.40;;
51714;SDS011;39115;59.332;18.034;2023-02-23T11:12:03;2.28;;;1.60;;
51714;SDS011;39115;59.332;18.034;2023-02-23T11:14:51;2.92;;;1.45;;
51714;SDS011;39115;59.332;18.034;2023-02-23T11:17:30;2.60;;;1.50;;
51714;SDS011;39115;59.332;18.034;2023-02-23T11:20:00;4.55;;;1.33;;
51714;SDS011;39115;59.332;18.034;2023-02-23T11:22:24;3.28;;;1.33;;
51714;SDS011;39115;59.332;18.034;2023-02-23T11:24:46;4.05;;;1.45;;
51714;SDS011;39115;59.332;18.034;2023-02-23T11:27:17;3.53;;;1.73;;
51714;SDS011;39115;59.332;18.034;2023-02-23T11:29:41;2.97;;;1.33;;
51714;SDS011;39115;59.332;18.034;2023-02-23T11:34:29;2.78;;;1.17;;
51714;SDS011;39115;59.332;18.034;2023-02-23T11:37:36;3.25;;;1.60;;
51714;SDS011;39115;59.332;18.034;2023-02-23T11:39:53;2.67;;;1.13;;
51714;SDS011;39115;59.332;18.034;2023-02-23T11:42:24;3.08;;;1.67;;
51714;SDS011;39115;59.332;18.034;2023-02-23T11:47:25;1.85;;;0.98;;
51714;SDS011;39115;59.332;18.034;2023-02-23T11:49:45;2.53;;;1.40;;
51714;SDS011;39115;59.332;18.034;2023-02-23T11:52:15;2.72;;;1.10;;
51714;SDS011;39115;59.332;18.034;2023-02-23T11:54:40;3.13;;;1.90;;
51714;SDS011;39115;59.332;18.034;2023-02-23T11:57:17;3.45;;;1.50;;
51714;SDS011;39115;59.332;18.034;2023-02-23T11:59:42;2.25;;;1.55;;
51714;SDS011;39115;59.332;18.034;2023-02-23T12:02:04;5.93;;;2.00;;
51714;SDS011;39115;59.332;18.034;2023-02-23T12:04:38;5.05;;;1.52;;
51714;SDS011;39115;59.332;18.034;2023-02-23T12:07:24;3.20;;;1.48;;
51714;SDS011;39115;59.332;18.034;2023-02-23T12:09:41;2.67;;;1.00;;
51714;SDS011;39115;59.332;18.034;2023-02-23T12:12:11;2.15;;;1.13;;
51714;SDS011;39115;59.332;18.034;2023-02-23T12:14:54;2.53;;;1.52;;
51714;SDS011;39115;59.332;18.034;2023-02-23T12:17:35;3.47;;;1.48;;
51714;SDS011;39115;59.332;18.034;2023-02-23T12:20:15;3.75;;;1.40;;
51714;SDS011;39115;59.332;18.034;2023-02-23T12:22:42;4.32;;;1.90;;
51714;SDS011;39115;59.332;18.034;2023-02-23T12:28:02;2.53;;;1.20;;
51714;SDS011;39115;59.332;18.034;2023-02-23T12:33:18;2.80;;;1.30;;
51714;SDS011;39115;59.332;18.034;2023-02-23T12:41:38;3.03;;;1.38;;
51714;SDS011;39115;59.332;18.034;2023-02-23T12:46:40;2.55;;;1.10;;
51714;SDS011;39115;59.332;18.034;2023-02-23T12:51:39;3.80;;;1.35;;
51714;SDS011;39115;59.332;18.034;2023-02-23T12:54:08;4.05;;;1.40;;
51714;SDS011;39115;59.332;18.034;2023-02-23T12:59:39;2.53;;;1.20;;
51714;SDS011;39115;59.332;18.034;2023-02-23T13:07:49;2.45;;;1.50;;
51714;SDS011;39115;59.332;18.034;2023-02-23T13:10:29;2.20;;;1.42;;
51714;SDS011;39115;59.332;18.034;2023-02-23T13:13:21;4.38;;;1.85;;
51714;SDS011;39115;59.332;18.034;2023-02-23T13:15:53;2.75;;;1.98;;
51714;SDS011;39115;59.332;18.034;2023-02-23T13:18:39;4.75;;;1.60;;
51714;SDS011;39115;59.332;18.034;2023-02-23T13:24:06;3.92;;;2.33;;
51714;SDS011;39115;59.332;18.034;2023-02-23T13:29:06;2.95;;;1.65;;
51714;SDS011;39115;59.332;18.034;2023-02-23T13:31:44;4.40;;;2.20;;
51714;SDS011;39115;59.332;18.034;2023-02-23T13:34:08;2.13;;;1.70;;
51714;SDS011;39115;59.332;18.034;2023-02-23T13:36:32;2.13;;;1.70;;
51714;SDS011;39115;59.332;18.034;2023-02-23T13:44:32;2.70;;;2.03;;
51714;SDS011;39115;59.332;18.034;2023-02-23T13:49:57;2.88;;;2.03;;
51714;SDS011;39115;59.332;18.034;2023-02-23T13:52:40;7.47;;;2.67;;
51714;SDS011;39115;59.332;18.034;2023-02-23T13:55:02;6.45;;;2.53;;
51714;SDS011;39115;59.332;18.034;2023-02-23T13:57:23;5.95;;;3.10;;
51714;SDS011;39115;59.332;18.034;2023-02-23T13:59:46;4.60;;;2.08;;
51714;SDS011;39115;59.332;18.034;2023-02-23T14:04:43;4.55;;;2.40;;
51714;SDS011;39115;59.332;18.034;2023-02-23T14:07:11;3.05;;;1.67;;
51714;SDS011;39115;59.332;18.034;2023-02-23T14:10:14;3.95;;;1.92;;
51714;SDS011;39115;59.332;18.034;2023-02-23T14:12:33;2.67;;;1.23;;
51714;SDS011;39115;59.332;18.034;2023-02-23T14:14:57;3.47;;;1.98;;
51714;SDS011;39115;59.332;18.034;2023-02-23T14:17:54;3.00;;;1.70;;
51714;SDS011;39115;59.332;18.034;2023-02-23T14:20:19;4.28;;;1.92;;
51714;SDS011;39115;59.332;18.034;2023-02-23T14:28:00;4.38;;;1.80;;
51714;SDS011;39115;59.332;18.034;2023-02-23T14:32:48;3.53;;;1.80;;
51714;SDS011;39115;59.332;18.034;2023-02-23T14:37:58;3.45;;;2.17;;
51714;SDS011;39115;59.332;18.034;2023-02-23T14:40:21;3.38;;;2.15;;
51714;SDS011;39115;59.332;18.034;2023-02-23T14:42:52;4.22;;;1.90;;
51714;SDS011;39115;59.332;18.034;2023-02-23T14:45:24;4.72;;;2.45;;
51714;SDS011;39115;59.332;18.034;2023-02-23T14:47:48;3.00;;;2.22;;
51714;SDS011;39115;59.332;18.034;2023-02-23T14:50:10;3.08;;;1.98;;
51714;SDS011;39115;59.332;18.034;2023-02-23T14:52:39;3.08;;;1.85;;
51714;SDS011;39115;59.332;18.034;2023-02-23T14:57:34;3.17;;;1.95;;
51714;SDS011;39115;59.332;18.034;2023-02-23T14:59:59;3.65;;;1.90;;
51714;SDS011;39115;59.332;18.034;2023-02-23T15:02:22;3.63;;;2.17;;
51714;SDS011;39115;59.332;18.034;2023-02-23T15:04:45;4.50;;;2.20;;
51714;SDS011;39115;59.332;18.034;2023-02-23T15:07:06;2.75;;;2.05;;
51714;SDS011;39115;59.332;18.034;2023-02-23T15:09:55;3.03;;;1.85;;
51714;SDS011;39115;59.332;18.034;2023-02-23T15:12:18;2.60;;;1.92;;
51714;SDS011;39115;59.332;18.034;2023-02-23T15:14:48;3.95;;;1.98;;
51714;SDS011;39115;59.332;18.034;2023-02-23T15:17:11;2.15;;;1.40;;
51714;SDS011;39115;59.332;18.034;2023-02-23T15:19:34;2.38;;;1.52;;
51714;SDS011;39115;59.332;18.034;2023-02-23T15:21:58;3.08;;;2.20;;
51714;SDS011;39115;59.332;18.034;2023-02-23T15:24:21;2.50;;;1.40;;
51714;SDS011;39115;59.332;18.034;2023-02-23T15:26:46;2.85;;;1.85;;
51714;SDS011;39115;59.332;18.034;2023-02-23T15:31:28;2.55;;;1.50;;
51714;SDS011;39115;59.332;18.034;2023-02-23T15:33:49;2.15;;;1.85;;
51714;SDS011;39115;59.332;18.034;2023-02-23T15:36:26;3.20;;;1.63;;
51714;SDS011;39115;59.332;18.034;2023-02-23T15:38:50;4.13;;;1.63;;
51714;SDS011;39115;59.332;18.034;2023-02-23T15:41:17;4.15;;;2.50;;
51714;SDS011;39115;59.332;18.034;2023-02-23T15:43:45;2.10;;;1.58;;
51714;SDS011;39115;59.332;18.034;2023-02-23T15:46:11;2.15;;;1.55;;
51714;SDS011;39115;59.332;18.034;2023-02-23T15:48:44;3.20;;;2.00;;
51714;SDS011;39115;59.332;18.034;2023-02-23T15:51:13;2.90;;;1.80;;
51714;SDS011;39115;59.332;18.034;2023-02-23T15:53:51;1.95;;;1.52;;
51714;SDS011;39115;59.332;18.034;2023-02-23T15:56:14;2.97;;;2.10;;
51714;SDS011;39115;59.332;18.034;2023-02-23T15:58:47;1.65;;;1.30;;
51714;SDS011;39115;59.332;18.034;2023-02-23T16:01:10;2.65;;;1.98;;
51714;SDS011;39115;59.332;18.034;2023-02-23T16:03:36;2.78;;;1.90;;
51714;SDS011;39115;59.332;18.034;2023-02-23T16:06:07;2.38;;;1.58;;
51714;SDS011;39115;59.332;18.034;2023-02-23T16:08:55;2.30;;;1.63;;
51714;SDS011;39115;59.332;18.034;2023-02-23T16:11:39;2.25;;;1.30;;
51714;SDS011;39115;59.332;18.034;2023-02-23T16:14:00;2.30;;;1.60;;
51714;SDS011;39115;59.332;18.034;2023-02-23T16:16:24;2.90;;;1.92;;
51714;SDS011;39115;59.332;18.034;2023-02-23T16:18:50;3.55;;;2.10;;
51714;SDS011;39115;59.332;18.034;2023-02-23T16:21:14;3.33;;;1.77;;
51714;SDS011;39115;59.332;18.034;2023-02-23T16:23:40;2.28;;;1.52;;
51714;SDS011;39115;59.332;18.034;2023-02-23T16:26:08;2.42;;;1.75;;
51714;SDS011;39115;59.332;18.034;2023-02-23T16:28:29;4.05;;;1.83;;
51714;SDS011;39115;59.332;18.034;2023-02-23T16:30:56;3.08;;;1.38;;
51714;SDS011;39115;59.332;18.034;2023-02-23T16:33:20;2.15;;;1.50;;
51714;SDS011;39115;59.332;18.034;2023-02-23T16:41:20;4.28;;;2.53;;